sensor_id;sensor_type;location;lat;lon;timestamp;temperature;humidity
18103;DHT22;9178;51.120;6.192;2022-12-07T00:01:30;4.60;99.90
18103;DHT22;9178;51.120;6.192;2022-12-07T00:03:59;4.60;99.90
18103;DHT22;9178;51.120;6.192;2022-12-07T00:06:31;4.50;99.90
18103;DHT22;9178;51.120;6.192;2022-12-07T00:08:58;4.50;99.90
18103;DHT22;9178;51.120;6.192;2022-12-07T00:11:25;4.50;99.90
18103;DHT22;9178;51.120;6.192;2022-12-07T00:13:55;4.50;99.90
18103;DHT22;9178;51.120;6.192;2022-12-07T00:16:25;4.50;99.90
18103;DHT22;9178;51.120;6.192;2022-12-07T00:18:52;4.50;99.90
18103;DHT22;9178;51.120;6.192;2022-12-07T00:21:20;4.50;99.90
18103;DHT22;9178;51.120;6.192;2022-12-07T00:23:48;4.50;99.90
18103;DHT22;9178;51.120;6.192;2022-12-07T00:26:18;4.40;99.90
18103;DHT22;9178;51.120;6.192;2022-12-07T00:28:48;4.40;99.90
18103;DHT22;9178;51.120;6.192;2022-12-07T00:31:18;4.30;99.90
18103;DHT22;9178;51.120;6.192;2022-12-07T00:33:45;4.30;99.90
18103;DHT22;9178;51.120;6.192;2022-12-07T00:36:15;4.20;99.90
18103;DHT22;9178;51.120;6.192;2022-12-07T00:38:42;4.20;99.90
18103;DHT22;9178;51.120;6.192;2022-12-07T00:41:12;4.20;99.90
18103;DHT22;9178;51.120;6.192;2022-12-07T00:43:39;4.20;99.90
18103;DHT22;9178;51.120;6.192;2022-12-07T00:46:06;4.20;99.90
18103;DHT22;9178;51.120;6.192;2022-12-07T00:48:35;4.20;99.90
18103;DHT22;9178;51.120;6.192;2022-12-07T00:51:02;4.20;99.90
18103;DHT22;9178;51.120;6.192;2022-12-07T00:53:30;4.20;99.90
18103;DHT22;9178;51.120;6.192;2022-12-07T00:55:57;4.20;99.90
18103;DHT22;9178;51.120;6.192;2022-12-07T00:58:23;4.30;99.90
18103;DHT22;9178;51.120;6.192;2022-12-07T01:00:50;4.30;99.90
18103;DHT22;9178;51.120;6.192;2022-12-07T01:03:18;4.30;99.90
18103;DHT22;9178;51.120;6.192;2022-12-07T01:05:53;4.30;99.90
18103;DHT22;9178;51.120;6.192;2022-12-07T01:08:21;4.30;99.90
18103;DHT22;9178;51.120;6.192;2022-12-07T01:10:48;4.30;99.90
18103;DHT22;9178;51.120;6.192;2022-12-07T01:13:15;4.30;99.90
18103;DHT22;9178;51.120;6.192;2022-12-07T01:15:43;4.40;99.90
18103;DHT22;9178;51.120;6.192;2022-12-07T01:18:10;4.40;99.90
18103;DHT22;9178;51.120;6.192;2022-12-07T01:20:37;4.30;99.90
18103;DHT22;9178;51.120;6.192;2022-12-07T01:23:05;4.40;99.90
18103;DHT22;9178;51.120;6.192;2022-12-07T01:25:32;4.40;99.90
18103;DHT22;9178;51.120;6.192;2022-12-07T01:27:59;4.40;99.90
18103;DHT22;9178;51.120;6.192;2022-12-07T01:30:27;4.40;99.90
18103;DHT22;9178;51.120;6.192;2022-12-07T01:32:54;4.40;99.90
18103;DHT22;9178;51.120;6.192;2022-12-07T01:35:21;4.40;99.90
18103;DHT22;9178;51.120;6.192;2022-12-07T01:37:48;4.50;99.90
18103;DHT22;9178;51.120;6.192;2022-12-07T01:40:17;4.50;99.90
18103;DHT22;9178;51.120;6.192;2022-12-07T01:42:44;4.50;99.90
18103;DHT22;9178;51.120;6.192;2022-12-07T01:45:38;4.40;99.90
18103;DHT22;9178;51.120;6.192;2022-12-07T01:48:05;4.40;99.90
18103;DHT22;9178;51.120;6.192;2022-12-07T01:50:34;4.40;99.90
18103;DHT22;9178;51.120;6.192;2022-12-07T01:53:03;4.40;99.90
18103;DHT22;9178;51.120;6.192;2022-12-07T01:55:33;4.40;99.90
18103;DHT22;9178;51.120;6.192;2022-12-07T01:58:01;4.40;99.90
18103;DHT22;9178;51.120;6.192;2022-12-07T02:00:27;4.40;99.90
18103;DHT22;9178;51.120;6.192;2022-12-07T02:02:59;4.50;99.90
18103;DHT22;9178;51.120;6.192;2022-12-07T02:05:26;4.40;99.90
18103;DHT22;9178;51.120;6.192;2022-12-07T02:07:55;4.40;99.90
18103;DHT22;9178;51.120;6.192;2022-12-07T02:10:25;4.40;99.90
18103;DHT22;9178;51.120;6.192;2022-12-07T02:12:57;4.50;99.90
18103;DHT22;9178;51.120;6.192;2022-12-07T02:15:28;4.50;99.90
18103;DHT22;9178;51.120;6.192;2022-12-07T02:18:04;4.40;99.90
18103;DHT22;9178;51.120;6.192;2022-12-07T02:20:35;4.40;99.90
18103;DHT22;9178;51.120;6.192;2022-12-07T02:23:28;4.40;99.90
18103;DHT22;9178;51.120;6.192;2022-12-07T02:29:11;4.40;99.90
18103;DHT22;9178;51.120;6.192;2022-12-07T02:31:43;4.40;99.90
18103;DHT22;9178;51.120;6.192;2022-12-07T02:34:15;4.40;99.90
18103;DHT22;9178;51.120;6.192;2022-12-07T02:36:48;4.40;99.90
18103;DHT22;9178;51.120;6.192;2022-12-07T02:39:20;4.40;99.90
18103;DHT22;9178;51.120;6.192;2022-12-07T02:41:52;4.40;99.90
18103;DHT22;9178;51.120;6.192;2022-12-07T02:44:24;4.40;99.90
18103;DHT22;9178;51.120;6.192;2022-12-07T02:46:54;4.40;99.90
18103;DHT22;9178;51.120;6.192;2022-12-07T02:49:23;4.50;99.90
18103;DHT22;9178;51.120;6.192;2022-12-07T02:51:52;4.40;99.90
18103;DHT22;9178;51.120;6.192;2022-12-07T02:54:20;4.50;99.90
18103;DHT22;9178;51.120;6.192;2022-12-07T02:56:51;4.50;99.90
18103;DHT22;9178;51.120;6.192;2022-12-07T02:59:29;4.50;99.90
18103;DHT22;9178;51.120;6.192;2022-12-07T03:02:09;4.50;99.90
18103;DHT22;9178;51.120;6.192;2022-12-07T03:04:44;4.40;99.90
18103;DHT22;9178;51.120;6.192;2022-12-07T03:07:19;4.40;99.90
18103;DHT22;9178;51.120;6.192;2022-12-07T03:09:51;4.40;99.90
18103;DHT22;9178;51.120;6.192;2022-12-07T03:12:26;4.50;99.90
18103;DHT22;9178;51.120;6.192;2022-12-07T03:15:02;4.50;99.90
18103;DHT22;9178;51.120;6.192;2022-12-07T03:17:35;4.50;99.90
18103;DHT22;9178;51.120;6.192;2022-12-07T03:20:06;4.40;99.90
18103;DHT22;9178;51.120;6.192;2022-12-07T03:22:35;4.40;99.90
18103;DHT22;9178;51.120;6.192;2022-12-07T03:25:06;4.40;99.90
18103;DHT22;9178;51.120;6.192;2022-12-07T03:27:38;4.40;99.90
18103;DHT22;9178;51.120;6.192;2022-12-07T03:30:09;4.40;99.90
18103;DHT22;9178;51.120;6.192;2022-12-07T03:32:40;4.40;99.90
18103;DHT22;9178;51.120;6.192;2022-12-07T03:35:12;4.40;99.90
18103;DHT22;9178;51.120;6.192;2022-12-07T03:37:46;4.40;99.90
18103;DHT22;9178;51.120;6.192;2022-12-07T03:40:19;4.40;99.90
18103;DHT22;9178;51.120;6.192;2022-12-07T03:42:50;4.40;99.90
18103;DHT22;9178;51.120;6.192;2022-12-07T03:45:24;4.40;99.90
18103;DHT22;9178;51.120;6.192;2022-12-07T03:48:05;4.40;99.90
18103;DHT22;9178;51.120;6.192;2022-12-07T03:50:38;4.30;99.90
18103;DHT22;9178;51.120;6.192;2022-12-07T03:53:11;4.30;99.90
18103;DHT22;9178;51.120;6.192;2022-12-07T03:55:42;4.30;99.90
18103;DHT22;9178;51.120;6.192;2022-12-07T03:58:15;4.30;99.90
18103;DHT22;9178;51.120;6.192;2022-12-07T04:00:44;4.30;99.90
18103;DHT22;9178;51.120;6.192;2022-12-07T04:03:11;4.20;99.90
18103;DHT22;9178;51.120;6.192;2022-12-07T04:05:39;4.20;99.90
18103;DHT22;9178;51.120;6.192;2022-12-07T04:08:06;4.20;99.90
18103;DHT22;9178;51.120;6.192;2022-12-07T04:10:33;4.20;99.90
18103;DHT22;9178;51.120;6.192;2022-12-07T04:12:59;4.20;99.90
18103;DHT22;9178;51.120;6.192;2022-12-07T04:15:26;4.20;99.90
18103;DHT22;9178;51.120;6.192;2022-12-07T04:17:54;4.10;99.90
18103;DHT22;9178;51.120;6.192;2022-12-07T04:20:22;4.10;99.90
18103;DHT22;9178;51.120;6.192;2022-12-07T04:22:49;4.10;99.90
18103;DHT22;9178;51.120;6.192;2022-12-07T04:25:16;4.10;99.90
18103;DHT22;9178;51.120;6.192;2022-12-07T04:27:43;4.00;99.90
18103;DHT22;9178;51.120;6.192;2022-12-07T04:30:10;4.00;99.90
18103;DHT22;9178;51.120;6.192;2022-12-07T04:32:37;4.00;99.90
18103;DHT22;9178;51.120;6.192;2022-12-07T04:35:06;4.00;99.90
18103;DHT22;9178;51.120;6.192;2022-12-07T04:37:33;4.00;99.90
18103;DHT22;9178;51.120;6.192;2022-12-07T04:40:00;4.00;99.90
18103;DHT22;9178;51.120;6.192;2022-12-07T04:42:27;4.00;99.90
18103;DHT22;9178;51.120;6.192;2022-12-07T04:44:53;4.00;99.90
18103;DHT22;9178;51.120;6.192;2022-12-07T04:47:20;4.00;99.90
18103;DHT22;9178;51.120;6.192;2022-12-07T04:49:47;4.00;99.90
18103;DHT22;9178;51.120;6.192;2022-12-07T04:52:15;4.00;99.90
18103;DHT22;9178;51.120;6.192;2022-12-07T04:54:42;4.00;99.90
18103;DHT22;9178;51.120;6.192;2022-12-07T04:57:09;4.00;99.90
18103;DHT22;9178;51.120;6.192;2022-12-07T04:59:36;4.00;99.90
18103;DHT22;9178;51.120;6.192;2022-12-07T05:02:03;4.00;99.90
18103;DHT22;9178;51.120;6.192;2022-12-07T05:04:30;4.00;99.90
18103;DHT22;9178;51.120;6.192;2022-12-07T05:06:57;4.00;99.90
18103;DHT22;9178;51.120;6.192;2022-12-07T05:09:25;4.00;99.90
18103;DHT22;9178;51.120;6.192;2022-12-07T05:11:51;4.00;99.90
18103;DHT22;9178;51.120;6.192;2022-12-07T05:14:20;4.10;99.90
18103;DHT22;9178;51.120;6.192;2022-12-07T05:16:48;4.10;99.90
18103;DHT22;9178;51.120;6.192;2022-12-07T05:19:16;4.10;99.90
18103;DHT22;9178;51.120;6.192;2022-12-07T05:21:43;4.10;99.90
18103;DHT22;9178;51.120;6.192;2022-12-07T05:24:12;4.00;99.90
18103;DHT22;9178;51.120;6.192;2022-12-07T05:26:40;4.10;99.90
18103;DHT22;9178;51.120;6.192;2022-12-07T05:29:10;4.10;99.90
18103;DHT22;9178;51.120;6.192;2022-12-07T05:31:37;4.10;99.90
18103;DHT22;9178;51.120;6.192;2022-12-07T05:34:04;4.10;99.90
18103;DHT22;9178;51.120;6.192;2022-12-07T05:36:31;4.10;99.90
18103;DHT22;9178;51.120;6.192;2022-12-07T05:38:58;4.00;99.90
18103;DHT22;9178;51.120;6.192;2022-12-07T05:41:25;4.10;99.90
18103;DHT22;9178;51.120;6.192;2022-12-07T05:44:11;4.00;99.90
18103;DHT22;9178;51.120;6.192;2022-12-07T05:46:40;4.00;99.90
18103;DHT22;9178;51.120;6.192;2022-12-07T05:49:07;4.00;99.90
18103;DHT22;9178;51.120;6.192;2022-12-07T05:51:34;4.10;99.90
18103;DHT22;9178;51.120;6.192;2022-12-07T05:54:01;4.00;99.90
18103;DHT22;9178;51.120;6.192;2022-12-07T05:56:28;4.10;99.90
18103;DHT22;9178;51.120;6.192;2022-12-07T05:58:55;4.10;99.90
18103;DHT22;9178;51.120;6.192;2022-12-07T06:01:41;4.00;99.90
18103;DHT22;9178;51.120;6.192;2022-12-07T06:04:08;4.10;99.90
18103;DHT22;9178;51.120;6.192;2022-12-07T06:06:35;4.10;99.90
18103;DHT22;9178;51.120;6.192;2022-12-07T06:09:02;4.10;99.90
18103;DHT22;9178;51.120;6.192;2022-12-07T06:11:29;4.10;99.90
18103;DHT22;9178;51.120;6.192;2022-12-07T06:14:13;4.00;99.90
18103;DHT22;9178;51.120;6.192;2022-12-07T06:16:42;4.00;99.90
18103;DHT22;9178;51.120;6.192;2022-12-07T06:19:09;4.00;99.90
18103;DHT22;9178;51.120;6.192;2022-12-07T06:21:35;4.00;99.90
18103;DHT22;9178;51.120;6.192;2022-12-07T06:24:03;3.90;99.90
18103;DHT22;9178;51.120;6.192;2022-12-07T06:26:29;4.00;99.90
18103;DHT22;9178;51.120;6.192;2022-12-07T06:28:56;4.00;99.90
18103;DHT22;9178;51.120;6.192;2022-12-07T06:31:23;4.00;99.90
18103;DHT22;9178;51.120;6.192;2022-12-07T06:33:51;4.00;99.90
18103;DHT22;9178;51.120;6.192;2022-12-07T06:36:23;4.00;99.90
18103;DHT22;9178;51.120;6.192;2022-12-07T06:38:50;4.00;99.90
18103;DHT22;9178;51.120;6.192;2022-12-07T06:41:16;4.00;99.90
18103;DHT22;9178;51.120;6.192;2022-12-07T06:43:43;3.90;99.90
18103;DHT22;9178;51.120;6.192;2022-12-07T06:46:10;4.00;99.90
18103;DHT22;9178;51.120;6.192;2022-12-07T06:48:37;3.90;99.90
18103;DHT22;9178;51.120;6.192;2022-12-07T06:51:05;3.90;99.90
18103;DHT22;9178;51.120;6.192;2022-12-07T06:53:32;3.90;99.90
18103;DHT22;9178;51.120;6.192;2022-12-07T06:55:59;3.80;99.90
18103;DHT22;9178;51.120;6.192;2022-12-07T06:58:26;3.80;99.90
18103;DHT22;9178;51.120;6.192;2022-12-07T07:00:53;3.70;99.90
18103;DHT22;9178;51.120;6.192;2022-12-07T07:03:20;3.70;99.90
18103;DHT22;9178;51.120;6.192;2022-12-07T07:05:47;3.60;99.90
18103;DHT22;9178;51.120;6.192;2022-12-07T07:08:15;3.60;99.90
18103;DHT22;9178;51.120;6.192;2022-12-07T07:10:42;3.50;99.90
18103;DHT22;9178;51.120;6.192;2022-12-07T07:13:09;3.40;99.90
18103;DHT22;9178;51.120;6.192;2022-12-07T07:15:38;3.40;99.90
18103;DHT22;9178;51.120;6.192;2022-12-07T07:18:05;3.30;99.90
18103;DHT22;9178;51.120;6.192;2022-12-07T07:20:32;3.30;99.90
18103;DHT22;9178;51.120;6.192;2022-12-07T07:22:59;3.20;99.90
18103;DHT22;9178;51.120;6.192;2022-12-07T07:25:27;3.20;99.90
18103;DHT22;9178;51.120;6.192;2022-12-07T07:27:54;3.20;99.90
18103;DHT22;9178;51.120;6.192;2022-12-07T07:30:21;3.30;99.90
18103;DHT22;9178;51.120;6.192;2022-12-07T07:32:48;3.30;99.90
18103;DHT22;9178;51.120;6.192;2022-12-07T07:35:15;3.30;99.90
18103;DHT22;9178;51.120;6.192;2022-12-07T07:37:42;3.30;99.90
18103;DHT22;9178;51.120;6.192;2022-12-07T07:40:10;3.30;99.90
18103;DHT22;9178;51.120;6.192;2022-12-07T07:42:41;3.40;99.90
18103;DHT22;9178;51.120;6.192;2022-12-07T07:45:12;3.40;99.90
18103;DHT22;9178;51.120;6.192;2022-12-07T07:47:40;3.40;99.90
18103;DHT22;9178;51.120;6.192;2022-12-07T07:50:09;3.40;99.90
18103;DHT22;9178;51.120;6.192;2022-12-07T07:52:37;3.30;99.90
18103;DHT22;9178;51.120;6.192;2022-12-07T07:55:05;3.20;99.90
18103;DHT22;9178;51.120;6.192;2022-12-07T07:57:34;3.20;99.90
18103;DHT22;9178;51.120;6.192;2022-12-07T08:00:04;3.20;99.90
18103;DHT22;9178;51.120;6.192;2022-12-07T08:02:32;3.20;99.90
18103;DHT22;9178;51.120;6.192;2022-12-07T08:04:58;3.20;99.90
18103;DHT22;9178;51.120;6.192;2022-12-07T08:07:27;3.20;99.90
18103;DHT22;9178;51.120;6.192;2022-12-07T08:09:54;3.20;99.90
18103;DHT22;9178;51.120;6.192;2022-12-07T08:12:20;3.10;99.90
18103;DHT22;9178;51.120;6.192;2022-12-07T08:14:47;3.10;99.90
18103;DHT22;9178;51.120;6.192;2022-12-07T08:17:15;3.10;99.90
18103;DHT22;9178;51.120;6.192;2022-12-07T08:19:42;3.10;99.90
18103;DHT22;9178;51.120;6.192;2022-12-07T08:22:09;3.10;99.90
18103;DHT22;9178;51.120;6.192;2022-12-07T08:24:36;3.10;99.90
18103;DHT22;9178;51.120;6.192;2022-12-07T08:27:03;3.10;99.90
18103;DHT22;9178;51.120;6.192;2022-12-07T08:29:30;3.10;99.90
18103;DHT22;9178;51.120;6.192;2022-12-07T08:31:57;3.10;99.90
18103;DHT22;9178;51.120;6.192;2022-12-07T08:34:27;3.10;99.90
18103;DHT22;9178;51.120;6.192;2022-12-07T08:36:54;3.20;99.90
18103;DHT22;9178;51.120;6.192;2022-12-07T08:39:21;3.20;99.90
18103;DHT22;9178;51.120;6.192;2022-12-07T08:41:47;3.20;99.90
18103;DHT22;9178;51.120;6.192;2022-12-07T08:44:15;3.20;99.90
18103;DHT22;9178;51.120;6.192;2022-12-07T08:46:45;3.20;99.90
18103;DHT22;9178;51.120;6.192;2022-12-07T08:49:16;3.20;99.90
18103;DHT22;9178;51.120;6.192;2022-12-07T08:51:46;3.10;99.90
18103;DHT22;9178;51.120;6.192;2022-12-07T08:54:15;3.20;99.90
18103;DHT22;9178;51.120;6.192;2022-12-07T08:56:43;3.20;99.90
18103;DHT22;9178;51.120;6.192;2022-12-07T08:59:12;3.30;99.90
18103;DHT22;9178;51.120;6.192;2022-12-07T09:01:39;3.50;99.90
18103;DHT22;9178;51.120;6.192;2022-12-07T09:04:06;3.60;99.90
18103;DHT22;9178;51.120;6.192;2022-12-07T09:06:33;3.70;99.90
18103;DHT22;9178;51.120;6.192;2022-12-07T09:09:02;3.70;99.90
18103;DHT22;9178;51.120;6.192;2022-12-07T09:11:29;3.80;99.90
18103;DHT22;9178;51.120;6.192;2022-12-07T09:13:56;3.80;99.90
18103;DHT22;9178;51.120;6.192;2022-12-07T09:16:23;3.80;99.90
18103;DHT22;9178;51.120;6.192;2022-12-07T09:18:50;3.90;99.90
18103;DHT22;9178;51.120;6.192;2022-12-07T09:21:17;4.00;99.90
18103;DHT22;9178;51.120;6.192;2022-12-07T09:23:43;4.00;99.90
18103;DHT22;9178;51.120;6.192;2022-12-07T09:26:13;4.10;99.90
18103;DHT22;9178;51.120;6.192;2022-12-07T09:28:40;4.10;99.90
18103;DHT22;9178;51.120;6.192;2022-12-07T09:31:07;4.20;99.90
18103;DHT22;9178;51.120;6.192;2022-12-07T09:33:34;4.30;99.90
18103;DHT22;9178;51.120;6.192;2022-12-07T09:36:01;4.30;99.90
18103;DHT22;9178;51.120;6.192;2022-12-07T09:38:28;4.40;99.90
18103;DHT22;9178;51.120;6.192;2022-12-07T09:40:57;4.40;99.90
18103;DHT22;9178;51.120;6.192;2022-12-07T09:43:25;4.50;99.90
18103;DHT22;9178;51.120;6.192;2022-12-07T09:45:54;4.50;99.90
18103;DHT22;9178;51.120;6.192;2022-12-07T09:48:32;4.50;99.90
18103;DHT22;9178;51.120;6.192;2022-12-07T09:51:00;4.50;99.90
18103;DHT22;9178;51.120;6.192;2022-12-07T09:53:33;4.50;99.90
18103;DHT22;9178;51.120;6.192;2022-12-07T09:56:02;4.50;99.90
18103;DHT22;9178;51.120;6.192;2022-12-07T09:58:32;4.50;99.90
18103;DHT22;9178;51.120;6.192;2022-12-07T10:01:12;4.50;99.90
18103;DHT22;9178;51.120;6.192;2022-12-07T10:03:48;4.50;99.90
18103;DHT22;9178;51.120;6.192;2022-12-07T10:06:15;4.50;99.90
18103;DHT22;9178;51.120;6.192;2022-12-07T10:08:42;4.60;99.90
18103;DHT22;9178;51.120;6.192;2022-12-07T10:11:09;4.60;99.90
18103;DHT22;9178;51.120;6.192;2022-12-07T10:13:40;4.80;99.90
18103;DHT22;9178;51.120;6.192;2022-12-07T10:16:31;4.90;99.90
18103;DHT22;9178;51.120;6.192;2022-12-07T10:19:17;5.00;99.90
18103;DHT22;9178;51.120;6.192;2022-12-07T10:22:00;5.10;99.90
18103;DHT22;9178;51.120;6.192;2022-12-07T10:24:27;5.30;99.90
18103;DHT22;9178;51.120;6.192;2022-12-07T10:26:54;5.30;99.90
18103;DHT22;9178;51.120;6.192;2022-12-07T10:29:24;5.40;99.90
18103;DHT22;9178;51.120;6.192;2022-12-07T10:31:57;5.40;99.90
18103;DHT22;9178;51.120;6.192;2022-12-07T10:34:26;5.50;99.90
18103;DHT22;9178;51.120;6.192;2022-12-07T10:37:11;5.70;99.90
18103;DHT22;9178;51.120;6.192;2022-12-07T10:39:44;5.90;99.90
18103;DHT22;9178;51.120;6.192;2022-12-07T10:42:18;6.00;99.90
18103;DHT22;9178;51.120;6.192;2022-12-07T10:44:48;5.90;99.90
18103;DHT22;9178;51.120;6.192;2022-12-07T10:47:28;5.90;99.90
18103;DHT22;9178;51.120;6.192;2022-12-07T10:50:14;5.80;99.90
18103;DHT22;9178;51.120;6.192;2022-12-07T10:52:55;5.80;99.90
18103;DHT22;9178;51.120;6.192;2022-12-07T10:55:39;5.90;99.90
18103;DHT22;9178;51.120;6.192;2022-12-07T10:58:24;6.10;99.90
18103;DHT22;9178;51.120;6.192;2022-12-07T11:01:03;6.20;99.90
18103;DHT22;9178;51.120;6.192;2022-12-07T11:03:56;6.40;99.90
18103;DHT22;9178;51.120;6.192;2022-12-07T11:06:33;6.50;99.90
18103;DHT22;9178;51.120;6.192;2022-12-07T11:09:16;6.70;99.90
18103;DHT22;9178;51.120;6.192;2022-12-07T11:11:52;6.70;99.90
18103;DHT22;9178;51.120;6.192;2022-12-07T11:14:26;6.70;99.90
18103;DHT22;9178;51.120;6.192;2022-12-07T11:17:01;6.80;99.90
18103;DHT22;9178;51.120;6.192;2022-12-07T11:19:41;6.80;99.90
18103;DHT22;9178;51.120;6.192;2022-12-07T11:22:20;6.70;99.90
18103;DHT22;9178;51.120;6.192;2022-12-07T11:24:56;6.70;99.90
18103;DHT22;9178;51.120;6.192;2022-12-07T11:27:35;6.70;99.90
18103;DHT22;9178;51.120;6.192;2022-12-07T11:30:13;6.70;99.90
18103;DHT22;9178;51.120;6.192;2022-12-07T11:35:45;6.80;99.90
18103;DHT22;9178;51.120;6.192;2022-12-07T11:38:20;6.80;99.90
18103;DHT22;9178;51.120;6.192;2022-12-07T11:40:49;6.80;99.90
18103;DHT22;9178;51.120;6.192;2022-12-07T11:43:24;6.80;99.90
18103;DHT22;9178;51.120;6.192;2022-12-07T11:45:56;6.70;99.90
18103;DHT22;9178;51.120;6.192;2022-12-07T11:48:32;6.70;99.90
18103;DHT22;9178;51.120;6.192;2022-12-07T11:51:01;6.70;99.90
18103;DHT22;9178;51.120;6.192;2022-12-07T11:53:35;6.60;99.90
18103;DHT22;9178;51.120;6.192;2022-12-07T11:56:08;6.60;99.90
18103;DHT22;9178;51.120;6.192;2022-12-07T12:01:22;6.40;99.90
18103;DHT22;9178;51.120;6.192;2022-12-07T12:04:00;6.50;99.90
18103;DHT22;9178;51.120;6.192;2022-12-07T12:06:29;6.50;99.90
18103;DHT22;9178;51.120;6.192;2022-12-07T12:09:02;6.60;99.90
18103;DHT22;9178;51.120;6.192;2022-12-07T12:11:45;6.60;99.90
18103;DHT22;9178;51.120;6.192;2022-12-07T12:14:36;6.70;99.90
18103;DHT22;9178;51.120;6.192;2022-12-07T12:17:34;6.80;99.90
18103;DHT22;9178;51.120;6.192;2022-12-07T12:20:13;6.90;99.90
18103;DHT22;9178;51.120;6.192;2022-12-07T12:22:45;7.00;99.90
18103;DHT22;9178;51.120;6.192;2022-12-07T12:25:20;6.90;99.90
18103;DHT22;9178;51.120;6.192;2022-12-07T12:27:49;7.00;99.90
18103;DHT22;9178;51.120;6.192;2022-12-07T12:30:31;6.90;99.90
18103;DHT22;9178;51.120;6.192;2022-12-07T12:33:04;6.90;99.90
18103;DHT22;9178;51.120;6.192;2022-12-07T12:35:34;6.90;99.90
18103;DHT22;9178;51.120;6.192;2022-12-07T12:38:27;6.90;99.90
18103;DHT22;9178;51.120;6.192;2022-12-07T12:40:55;6.70;99.90
18103;DHT22;9178;51.120;6.192;2022-12-07T12:43:45;6.70;99.90
18103;DHT22;9178;51.120;6.192;2022-12-07T12:46:37;6.70;99.90
18103;DHT22;9178;51.120;6.192;2022-12-07T12:58:38;6.70;99.90
18103;DHT22;9178;51.120;6.192;2022-12-07T13:01:32;6.70;99.90
18103;DHT22;9178;51.120;6.192;2022-12-07T13:03:59;6.80;99.90
18103;DHT22;9178;51.120;6.192;2022-12-07T13:06:35;6.80;99.90
18103;DHT22;9178;51.120;6.192;2022-12-07T13:09:18;6.80;99.90
18103;DHT22;9178;51.120;6.192;2022-12-07T13:11:47;6.80;99.90
18103;DHT22;9178;51.120;6.192;2022-12-07T13:14:52;6.90;99.90
18103;DHT22;9178;51.120;6.192;2022-12-07T13:17:57;6.90;99.90
18103;DHT22;9178;51.120;6.192;2022-12-07T13:20:44;6.90;99.90
18103;DHT22;9178;51.120;6.192;2022-12-07T13:23:12;6.90;99.90
18103;DHT22;9178;51.120;6.192;2022-12-07T13:25:46;6.90;99.90
18103;DHT22;9178;51.120;6.192;2022-12-07T13:28:17;6.80;99.90
18103;DHT22;9178;51.120;6.192;2022-12-07T13:30:58;6.80;99.90
18103;DHT22;9178;51.120;6.192;2022-12-07T13:33:28;6.80;99.90
18103;DHT22;9178;51.120;6.192;2022-12-07T13:35:55;6.80;99.90
18103;DHT22;9178;51.120;6.192;2022-12-07T13:38:28;6.80;99.90
18103;DHT22;9178;51.120;6.192;2022-12-07T13:41:13;6.70;99.90
18103;DHT22;9178;51.120;6.192;2022-12-07T13:43:48;6.70;99.90
18103;DHT22;9178;51.120;6.192;2022-12-07T13:46:17;6.60;99.90
18103;DHT22;9178;51.120;6.192;2022-12-07T13:48:48;6.60;99.90
18103;DHT22;9178;51.120;6.192;2022-12-07T13:51:21;6.50;99.90
18103;DHT22;9178;51.120;6.192;2022-12-07T13:53:49;6.50;99.90
18103;DHT22;9178;51.120;6.192;2022-12-07T13:56:18;6.50;99.90
18103;DHT22;9178;51.120;6.192;2022-12-07T13:58:47;6.40;99.90
18103;DHT22;9178;51.120;6.192;2022-12-07T14:01:14;6.30;99.90
18103;DHT22;9178;51.120;6.192;2022-12-07T14:03:41;6.20;99.90
18103;DHT22;9178;51.120;6.192;2022-12-07T14:06:29;6.30;99.90
18103;DHT22;9178;51.120;6.192;2022-12-07T14:09:17;6.20;99.90
18103;DHT22;9178;51.120;6.192;2022-12-07T14:11:48;6.10;99.90
18103;DHT22;9178;51.120;6.192;2022-12-07T14:14:18;6.00;99.90
18103;DHT22;9178;51.120;6.192;2022-12-07T14:17:00;6.00;99.90
18103;DHT22;9178;51.120;6.192;2022-12-07T14:19:58;5.90;99.90
18103;DHT22;9178;51.120;6.192;2022-12-07T14:22:31;5.80;99.90
18103;DHT22;9178;51.120;6.192;2022-12-07T14:27:50;5.70;99.90
18103;DHT22;9178;51.120;6.192;2022-12-07T14:30:19;5.60;99.90
18103;DHT22;9178;51.120;6.192;2022-12-07T14:32:52;5.50;99.90
18103;DHT22;9178;51.120;6.192;2022-12-07T14:35:19;5.50;99.90
18103;DHT22;9178;51.120;6.192;2022-12-07T14:37:48;5.40;99.90
18103;DHT22;9178;51.120;6.192;2022-12-07T14:40:16;5.40;99.90
18103;DHT22;9178;51.120;6.192;2022-12-07T14:42:44;5.30;99.90
18103;DHT22;9178;51.120;6.192;2022-12-07T14:45:18;5.30;99.90
18103;DHT22;9178;51.120;6.192;2022-12-07T14:47:46;5.30;99.90
18103;DHT22;9178;51.120;6.192;2022-12-07T14:50:14;5.20;99.90
18103;DHT22;9178;51.120;6.192;2022-12-07T14:52:42;5.20;99.90
18103;DHT22;9178;51.120;6.192;2022-12-07T14:55:14;5.20;99.90
18103;DHT22;9178;51.120;6.192;2022-12-07T14:57:42;5.10;99.90
18103;DHT22;9178;51.120;6.192;2022-12-07T15:00:13;5.10;99.90
18103;DHT22;9178;51.120;6.192;2022-12-07T15:02:41;5.00;99.90
18103;DHT22;9178;51.120;6.192;2022-12-07T15:05:08;4.90;99.90
18103;DHT22;9178;51.120;6.192;2022-12-07T15:07:35;4.90;99.90
18103;DHT22;9178;51.120;6.192;2022-12-07T15:10:03;4.80;99.90
18103;DHT22;9178;51.120;6.192;2022-12-07T15:12:30;4.80;99.90
18103;DHT22;9178;51.120;6.192;2022-12-07T15:14:57;4.70;99.90
18103;DHT22;9178;51.120;6.192;2022-12-07T15:17:23;4.60;99.90
18103;DHT22;9178;51.120;6.192;2022-12-07T15:19:51;4.50;99.90
18103;DHT22;9178;51.120;6.192;2022-12-07T15:22:18;4.50;99.90
18103;DHT22;9178;51.120;6.192;2022-12-07T15:24:45;4.50;99.90
18103;DHT22;9178;51.120;6.192;2022-12-07T15:27:12;4.50;99.90
18103;DHT22;9178;51.120;6.192;2022-12-07T15:29:38;4.50;99.90
18103;DHT22;9178;51.120;6.192;2022-12-07T15:32:05;4.40;99.90
18103;DHT22;9178;51.120;6.192;2022-12-07T15:34:32;4.40;99.90
18103;DHT22;9178;51.120;6.192;2022-12-07T15:37:00;4.40;99.90
18103;DHT22;9178;51.120;6.192;2022-12-07T15:39:27;4.30;99.90
18103;DHT22;9178;51.120;6.192;2022-12-07T15:41:54;4.30;99.90
18103;DHT22;9178;51.120;6.192;2022-12-07T15:44:21;4.30;99.90
18103;DHT22;9178;51.120;6.192;2022-12-07T15:47:02;4.30;99.90
18103;DHT22;9178;51.120;6.192;2022-12-07T15:49:30;4.20;99.90
18103;DHT22;9178;51.120;6.192;2022-12-07T15:51:57;4.20;99.90
18103;DHT22;9178;51.120;6.192;2022-12-07T15:54:27;4.10;99.90
18103;DHT22;9178;51.120;6.192;2022-12-07T15:56:55;4.10;99.90
18103;DHT22;9178;51.120;6.192;2022-12-07T15:59:22;4.10;99.90
18103;DHT22;9178;51.120;6.192;2022-12-07T16:01:49;4.00;99.90
18103;DHT22;9178;51.120;6.192;2022-12-07T16:04:15;3.90;99.90
18103;DHT22;9178;51.120;6.192;2022-12-07T16:06:42;3.90;99.90
18103;DHT22;9178;51.120;6.192;2022-12-07T16:09:10;3.90;99.90
18103;DHT22;9178;51.120;6.192;2022-12-07T16:11:38;3.80;99.90
18103;DHT22;9178;51.120;6.192;2022-12-07T16:14:05;3.80;99.90
18103;DHT22;9178;51.120;6.192;2022-12-07T16:16:32;3.80;99.90
18103;DHT22;9178;51.120;6.192;2022-12-07T16:18:59;3.70;99.90
18103;DHT22;9178;51.120;6.192;2022-12-07T16:21:26;3.70;99.90
18103;DHT22;9178;51.120;6.192;2022-12-07T16:23:53;3.70;99.90
18103;DHT22;9178;51.120;6.192;2022-12-07T16:26:21;3.70;99.90
18103;DHT22;9178;51.120;6.192;2022-12-07T16:28:50;3.80;99.90
18103;DHT22;9178;51.120;6.192;2022-12-07T16:31:19;3.80;99.90
18103;DHT22;9178;51.120;6.192;2022-12-07T16:33:46;3.80;99.90
18103;DHT22;9178;51.120;6.192;2022-12-07T16:36:15;3.80;99.90
18103;DHT22;9178;51.120;6.192;2022-12-07T16:38:42;3.80;99.90
18103;DHT22;9178;51.120;6.192;2022-12-07T16:41:10;3.80;99.90
18103;DHT22;9178;51.120;6.192;2022-12-07T16:43:37;3.90;99.90
18103;DHT22;9178;51.120;6.192;2022-12-07T16:46:06;3.90;99.90